Time;durP1;ratioP1;P1;durP2;ratioP2;P2;SDS_P1;SDS_P2;PMS_P1;PMS_P2;Temp;Humidity;BMP_temperature;BMP_pressure;BME280_temperature;BME280_humidity;BME280_pressure;Samples;Min_cycle;Max_cycle;Signal;HPM_P1;HPM_P2
2024/03/17 00:00:21;;;;;;;21.33;10.10;;;;;;;4.99;100.00;102184.59;5045915;28;20513;-67
2024/03/17 00:02:46;;;;;;;22.20;10.65;;;;;;;4.92;100.00;102177.25;5044806;28;20032;-67
2024/03/17 00:05:12;;;;;;;22.15;11.00;;;;;;;4.99;100.00;102166.25;5044902;28;20427;-67
2024/03/17 00:07:38;;;;;;;22.20;11.40;;;;;;;4.97;100.00;102171.41;5045803;28;20426;-66
2024/03/17 00:10:04;;;;;;;22.88;10.40;;;;;;;4.95;100.00;102169.53;5043593;28;20037;-65
2024/03/17 00:12:30;;;;;;;21.90;10.63;;;;;;;4.93;100.00;102160.72;5046475;28;20033;-65
2024/03/17 00:14:55;;;;;;;21.05;10.38;;;;;;;4.92;100.00;102165.03;5043194;28;20033;-66
2024/03/17 00:17:20;;;;;;;21.50;9.85;;;;;;;4.94;100.00;102159.91;5045876;28;20060;-69
2024/03/17 00:19:46;;;;;;;22.13;10.55;;;;;;;4.92;100.00;102158.91;5044377;28;20033;-66
2024/03/17 00:22:13;;;;;;;21.88;10.85;;;;;;;4.97;100.00;102160.94;5043070;28;20029;-67
2024/03/17 00:24:40;;;;;;;21.23;9.90;;;;;;;4.97;100.00;102144.31;5045260;28;20049;-67
2024/03/17 00:27:06;;;;;;;22.58;10.43;;;;;;;4.97;100.00;102150.47;5043379;28;20061;-65
2024/03/17 00:29:32;;;;;;;20.83;10.00;;;;;;;4.99;100.00;102156.66;5046321;28;20060;-65
2024/03/17 00:31:58;;;;;;;21.90;10.23;;;;;;;5.02;100.00;102159.44;5038830;28;20108;-66
2024/03/17 00:34:23;;;;;;;22.52;9.70;;;;;;;5.00;100.00;102160.19;5044496;28;20048;-66
2024/03/17 00:36:48;;;;;;;22.15;10.20;;;;;;;5.04;100.00;102160.41;5043901;28;20112;-67
2024/03/17 00:39:14;;;;;;;21.45;10.00;;;;;;;5.06;100.00;102155.25;5044856;28;20087;-65
2024/03/17 00:41:40;;;;;;;22.98;10.18;;;;;;;5.11;100.00;102158.06;5044859;28;20037;-65
2024/03/17 00:44:06;;;;;;;22.42;10.23;;;;;;;5.14;100.00;102152.97;5043530;28;20029;-77
2024/03/17 00:46:32;;;;;;;22.83;10.43;;;;;;;5.12;100.00;102152.91;5046308;28;20151;-77
2024/03/17 00:49:00;;;;;;;21.10;9.57;;;;;;;5.05;100.00;102143.88;5042944;28;20021;-65
2024/03/17 00:51:25;;;;;;;21.73;9.75;;;;;;;5.06;100.00;102144.75;5045829;28;20028;-65
2024/03/17 00:53:50;;;;;;;21.73;9.77;;;;;;;5.04;100.00;102147.31;5043092;28;20036;-65
2024/03/17 00:56:16;;;;;;;21.92;9.75;;;;;;;5.09;100.00;102138.78;5044125;28;20093;-66
2024/03/17 00:58:41;;;;;;;21.60;9.60;;;;;;;5.06;100.00;102135.16;5044452;28;20025;-65
2024/03/17 01:01:06;;;;;;;21.42;9.30;;;;;;;5.09;100.00;102144.91;5043152;28;20487;-66
2024/03/17 01:03:32;;;;;;;21.63;9.18;;;;;;;5.12;100.00;102139.78;5044465;28;20036;-65
2024/03/17 01:05:57;;;;;;;21.33;9.00;;;;;;;5.11;100.00;102138.03;5042229;28;20026;-65
2024/03/17 01:08:23;;;;;;;21.92;9.55;;;;;;;5.13;100.00;102138.97;5044393;28;20355;-67
2024/03/17 01:10:49;;;;;;;21.58;9.77;;;;;;;5.15;100.00;102145.19;5043218;28;20387;-65
2024/03/17 01:13:16;;;;;;;21.55;9.70;;;;;;;5.15;100.00;102129.44;5044054;28;20034;-65
2024/03/17 01:15:42;;;;;;;22.50;9.60;;;;;;;5.15;100.00;102129.44;5044153;28;20383;-65
2024/03/17 01:18:08;;;;;;;22.02;9.70;;;;;;;5.16;100.00;102120.78;5042573;28;20037;-65
2024/03/17 01:20:35;;;;;;;21.92;9.68;;;;;;;5.12;100.00;102113.56;5045307;28;20033;-65
2024/03/17 01:23:01;;;;;;;20.90;9.82;;;;;;;5.07;100.00;102109.88;5041576;28;20029;-66
2024/03/17 01:25:27;;;;;;;22.95;10.52;;;;;;;5.01;100.00;102102.59;5045471;28;20353;-68
2024/03/17 01:27:53;;;;;;;23.50;11.65;;;;;;;4.97;100.00;102112.88;5041225;28;20048;-66
2024/03/17 01:30:21;;;;;;;23.05;11.70;;;;;;;4.89;100.00;102115.13;5043857;28;20155;-65
2024/03/17 01:32:47;;;;;;;24.02;12.05;;;;;;;4.84;100.00;102101.78;5044974;28;20116;-65
2024/03/17 01:35:12;;;;;;;23.42;11.68;;;;;;;4.78;100.00;102106.75;5043660;28;20155;-65
2024/03/17 01:37:38;;;;;;;22.80;10.98;;;;;;;4.75;100.00;102106.59;5042286;28;20030;-66
2024/03/17 01:40:10;;;;;;;23.15;11.25;;;;;;;4.69;100.00;102095.84;5044940;28;20033;-65
2024/03/17 01:42:37;;;;;;;22.98;11.25;;;;;;;4.67;100.00;102097.47;5042021;28;20112;-65
2024/03/17 01:45:25;;;;;;;21.35;9.85;;;;;;;4.68;100.00;102088.78;5044715;28;20029;-70
2024/03/17 01:47:51;;;;;;;22.33;10.40;;;;;;;4.63;100.00;102095.50;5043791;28;20057;-66
2024/03/17 01:50:18;;;;;;;22.10;10.23;;;;;;;4.62;100.00;102083.25;5043108;28;20090;-70
2024/03/17 01:52:46;;;;;;;21.48;10.20;;;;;;;4.61;100.00;102082.34;5042877;28;20040;-69
2024/03/17 01:55:12;;;;;;;22.33;10.75;;;;;;;4.73;100.00;102092.50;5043337;28;20534;-67
2024/03/17 01:57:37;;;;;;;21.10;10.30;;;;;;;4.69;100.00;102086.25;5041895;28;20065;-65
2024/03/17 02:00:04;;;;;;;21.73;10.32;;;;;;;4.72;100.00;102094.25;5045005;28;20033;-68
2024/03/17 02:02:30;;;;;;;22.15;10.13;;;;;;;4.76;100.00;102094.41;5041404;28;20083;-67
2024/03/17 02:04:55;;;;;;;21.98;10.45;;;;;;;4.81;100.00;102093.78;5044122;28;20025;-68
2024/03/17 02:07:20;;;;;;;21.60;10.20;;;;;;;4.83;100.00;102084.25;5042435;28;20472;-65
2024/03/17 02:09:46;;;;;;;21.30;9.93;;;;;;;4.85;100.00;102084.38;5042710;28;20116;-67
2024/03/17 02:12:11;;;;;;;22.42;10.88;;;;;;;4.95;100.00;102077.81;5043173;28;20018;-65
2024/03/17 02:14:37;;;;;;;22.38;10.40;;;;;;;4.96;100.00;102079.63;5041738;28;20108;-65
2024/03/17 02:17:02;;;;;;;22.00;10.02;;;;;;;5.01;100.00;102073.78;5044345;28;20108;-65
2024/03/17 02:19:28;;;;;;;22.23;10.90;;;;;;;5.06;100.00;102080.09;5036159;28;20025;-66
2024/03/17 02:21:53;;;;;;;22.23;10.85;;;;;;;5.11;100.00;102075.13;5043576;28;20037;-65
2024/03/17 02:24:19;;;;;;;23.17;11.60;;;;;;;5.17;100.00;102069.22;5041878;28;20440;-67
2024/03/17 02:26:44;;;;;;;23.13;11.55;;;;;;;5.23;100.00;102074.78;5042668;28;20037;-66
2024/03/17 02:29:09;;;;;;;23.30;12.07;;;;;;;5.32;100.00;102063.81;5043292;28;20115;-66
2024/03/17 02:31:35;;;;;;;23.63;11.98;;;;;;;5.37;100.00;102064.88;5040884;28;20026;-65
2024/03/17 02:34:00;;;;;;;24.17;12.43;;;;;;;5.44;100.00;102059.09;5044284;28;20072;-65
2024/03/17 02:36:25;;;;;;;24.23;12.80;;;;;;;5.48;100.00;102053.16;5040981;28;20060;-66
2024/03/17 02:41:34;;;;;;;24.92;13.07;;;;;;;5.59;100.00;102054.53;5037958;28;20495;-65
2024/03/17 02:44:00;;;;;;;24.27;12.68;;;;;;;5.60;100.00;102044.94;5044297;28;20029;-65
2024/03/17 02:46:25;;;;;;;24.58;12.85;;;;;;;5.65;100.00;102045.13;5041204;28;20036;-66
2024/03/17 02:48:52;;;;;;;23.70;12.75;;;;;;;5.71;100.00;102053.28;5041732;28;20034;-68
2024/03/17 02:51:20;;;;;;;25.42;13.40;;;;;;;5.74;100.00;102043.81;5042137;28;20082;-66
2024/03/17 02:53:48;;;;;;;23.92;12.68;;;;;;;5.78;100.00;102041.31;5042261;28;20547;-66
2024/03/17 02:56:17;;;;;;;24.77;12.55;;;;;;;5.80;100.00;102040.56;5042565;28;20056;-68
2024/03/17 02:58:44;;;;;;;25.15;12.65;;;;;;;5.84;100.00;102053.00;5042019;28;20104;-76
2024/03/17 03:01:09;;;;;;;24.08;12.90;;;;;;;5.87;100.00;102055.75;5043154;28;20051;-76
2024/03/17 03:03:35;;;;;;;28.73;13.20;;;;;;;5.89;100.00;102056.69;5040608;28;20468;-76
2024/03/17 03:06:04;;;;;;;25.08;13.07;;;;;;;5.90;100.00;102065.47;5044175;28;20116;-76
2024/03/17 03:08:33;;;;;;;23.60;12.57;;;;;;;5.91;100.00;102047.16;5036694;28;20029;-76
2024/03/17 03:10:59;;;;;;;24.35;12.57;;;;;;;5.94;100.00;102047.28;5036444;28;20144;-75
2024/03/17 03:13:24;;;;;;;23.33;12.50;;;;;;;5.94;100.00;102043.75;5043456;28;20029;-76
2024/03/17 03:15:49;;;;;;;24.88;12.90;;;;;;;5.97;100.00;102043.00;5041654;28;20029;-76
2024/03/17 03:18:15;;;;;;;24.38;12.95;;;;;;;5.97;100.00;102043.00;5040835;28;20048;-77
2024/03/17 03:20:40;;;;;;;23.60;12.27;;;;;;;5.98;100.00;102047.47;5041707;28;20060;-77
2024/03/17 03:23:06;;;;;;;23.63;12.48;;;;;;;6.00;100.00;102032.66;5040436;28;20085;-77
2024/03/17 03:25:31;;;;;;;23.60;12.20;;;;;;;6.02;100.00;102044.13;5043728;28;20057;-76
2024/03/17 03:27:57;;;;;;;23.50;12.38;;;;;;;6.04;100.00;102031.94;5040718;28;20033;-76
2024/03/17 03:30:23;;;;;;;23.35;12.18;;;;;;;6.04;100.00;102030.25;5044272;28;20072;-76
2024/03/17 03:32:49;;;;;;;24.13;12.57;;;;;;;6.05;100.00;102033.75;5045318;28;20036;-66
2024/03/17 03:35:14;;;;;;;23.65;12.27;;;;;;;6.06;100.00;102033.81;5045681;28;20037;-77
2024/03/17 03:37:41;;;;;;;24.20;12.35;;;;;;;6.07;100.00;102037.31;5047381;28;20040;-77
2024/03/17 03:40:16;;;;;;;23.23;11.85;;;;;;;6.06;100.00;102035.56;5046935;28;20095;-68
2024/03/17 03:42:44;;;;;;;22.15;11.43;;;;;;;6.09;100.00;102033.06;5044953;28;20116;-68
2024/03/17 03:45:13;;;;;;;23.48;11.43;;;;;;;6.09;100.00;102020.81;5046596;28;20116;-68
2024/03/17 03:47:42;;;;;;;23.58;11.68;;;;;;;6.08;100.00;102023.38;5044421;28;20037;-69
2024/03/17 03:50:11;;;;;;;23.52;12.07;;;;;;;6.04;100.00;102025.00;5046577;28;20029;-68
2024/03/17 03:52:37;;;;;;;22.40;11.23;;;;;;;6.00;100.00;102016.91;5043742;28;20444;-66
2024/03/17 03:55:07;;;;;;;22.83;11.43;;;;;;;5.91;100.00;102007.78;5047266;28;20047;-69
2024/03/17 03:57:33;;;;;;;23.30;12.10;;;;;;;5.85;100.00;102001.38;5040109;28;20033;-67
2024/03/17 04:00:00;;;;;;;23.05;12.25;;;;;;;5.75;100.00;102002.72;5046953;28;20098;-71
2024/03/17 04:02:31;;;;;;;23.75;12.23;;;;;;;5.66;100.00;101997.97;5043926;28;20060;-67
2024/03/17 04:04:56;;;;;;;23.38;12.48;;;;;;;5.59;100.00;101995.91;5046466;28;20025;-66
2024/03/17 04:07:22;;;;;;;24.02;12.18;;;;;;;5.53;100.00;101993.03;5044539;28;20021;-71
2024/03/17 04:09:47;;;;;;;23.30;12.38;;;;;;;5.48;100.00;101992.84;5045208;28;20029;-70
2024/03/17 04:12:12;;;;;;;23.67;12.35;;;;;;;5.43;100.00;101988.22;5045559;28;20143;-65
2024/03/17 04:14:38;;;;;;;22.92;12.40;;;;;;;5.36;100.00;101987.06;5043817;28;20053;-74
2024/03/17 04:17:03;;;;;;;22.88;11.90;;;;;;;5.30;100.00;101986.78;5046651;28;20495;-75
2024/03/17 04:19:29;;;;;;;23.52;12.30;;;;;;;5.26;100.00;101985.75;5043364;28;20041;-77
2024/03/17 04:21:54;;;;;;;23.33;12.38;;;;;;;5.24;100.00;101976.91;5044406;28;20033;-66
2024/03/17 04:24:20;;;;;;;24.38;12.32;;;;;;;5.19;100.00;101981.97;5044042;28;20061;-67
2024/03/17 04:26:45;;;;;;;23.27;12.63;;;;;;;5.15;100.00;101974.78;5045991;28;20430;-67
2024/03/17 04:29:10;;;;;;;22.95;12.98;;;;;;;5.12;100.00;101976.38;5043801;28;20310;-65
2024/03/17 04:31:36;;;;;;;24.02;12.88;;;;;;;5.09;100.00;101969.28;5046026;28;20144;-66
2024/03/17 04:34:01;;;;;;;23.35;12.75;;;;;;;5.02;100.00;101975.06;5041665;28;20030;-66
2024/03/17 04:36:27;;;;;;;23.08;12.82;;;;;;;4.98;100.00;101975.75;5045978;28;20033;-65
2024/03/17 04:38:54;;;;;;;23.40;13.18;;;;;;;4.95;100.00;101973.00;5043417;28;20103;-66
2024/03/17 04:41:19;;;;;;;25.60;13.00;;;;;;;4.95;100.00;101970.38;5044411;28;20082;-66
2024/03/17 04:43:45;;;;;;;23.27;12.90;;;;;;;4.99;100.00;101964.44;5044137;28;20025;-69
2024/03/17 04:46:13;;;;;;;23.17;13.25;;;;;;;4.97;100.00;101972.25;5043418;28;20034;-66
2024/03/17 04:48:39;;;;;;;24.13;13.88;;;;;;;4.96;100.00;101975.69;5045840;28;20407;-66
2024/03/17 04:51:05;;;;;;;22.88;12.80;;;;;;;4.94;100.00;101974.72;5042430;28;20025;-66
2024/03/17 04:53:30;;;;;;;24.13;12.75;;;;;;;4.91;100.00;101976.28;5038203;28;20037;-65
2024/03/17 04:56:05;;;;;;;24.73;13.27;;;;;;;4.88;100.00;101972.72;5045700;28;20061;-67
2024/03/17 04:58:34;;;;;;;23.15;12.98;;;;;;;4.86;100.00;101977.00;5038433;28;20028;-69
2024/03/17 05:01:09;;;;;;;23.55;12.98;;;;;;;4.83;100.00;101971.59;5045959;28;20082;-70
2024/03/17 05:03:35;;;;;;;23.88;13.18;;;;;;;4.76;100.00;101974.78;5039137;28;20403;-67
2024/03/17 05:06:02;;;;;;;23.73;13.43;;;;;;;4.70;100.00;101974.47;5045694;28;20103;-68
2024/03/17 05:08:28;;;;;;;24.30;13.48;;;;;;;4.66;100.00;101973.47;5042404;28;20163;-67
2024/03/17 05:11:07;;;;;;;24.25;13.60;;;;;;;4.62;100.00;101979.38;5043491;28;20025;-67
2024/03/17 05:13:33;;;;;;;24.40;14.00;;;;;;;4.56;100.00;101973.84;5038443;28;20611;-66
2024/03/17 05:16:00;;;;;;;25.55;14.63;;;;;;;4.53;100.00;101977.22;5045142;28;20020;-66
2024/03/17 05:18:26;;;;;;;24.13;13.70;;;;;;;4.49;100.00;101971.78;5042611;28;20443;-65
2024/03/17 05:21:01;;;;;;;23.80;13.57;;;;;;;4.46;100.00;101964.66;5042918;28;20575;-66
2024/03/17 05:23:30;;;;;;;24.80;14.02;;;;;;;4.43;100.00;101968.88;5040951;28;20143;-65
2024/03/17 05:25:57;;;;;;;24.40;14.07;;;;;;;4.41;100.00;101970.50;5043344;28;20059;-65
2024/03/17 05:28:23;;;;;;;24.42;14.38;;;;;;;4.38;100.00;101963.41;5042717;28;20029;-64
2024/03/17 05:30:50;;;;;;;24.48;14.52;;;;;;;4.33;100.00;101962.28;5043776;28;20388;-65
2024/03/17 05:33:17;;;;;;;25.05;14.35;;;;;;;4.32;100.00;101961.38;5043483;28;20029;-65
2024/03/17 05:35:52;;;;;;;24.05;14.35;;;;;;;4.34;100.00;101958.88;5042662;28;20038;-65
2024/03/17 05:38:22;;;;;;;25.92;14.80;;;;;;;4.33;100.00;101960.56;5043590;28;20051;-65
2024/03/17 05:40:55;;;;;;;24.95;14.65;;;;;;;4.33;100.00;101957.94;5043191;28;20380;-64
2024/03/17 05:43:21;;;;;;;24.10;14.32;;;;;;;4.30;100.00;101951.69;5042850;28;20064;-65
2024/03/17 05:45:47;;;;;;;24.88;14.38;;;;;;;4.29;100.00;101949.88;5042978;28;20033;-64
2024/03/17 05:48:12;;;;;;;24.38;13.80;;;;;;;4.27;100.00;101949.81;5043748;28;20048;-65
2024/03/17 05:50:39;;;;;;;24.67;14.75;;;;;;;4.27;100.00;101949.81;5041623;28;20365;-69
2024/03/17 05:53:05;;;;;;;24.95;14.60;;;;;;;4.27;100.00;101951.53;5044928;28;20032;-65
2024/03/17 05:55:30;;;;;;;24.92;13.95;;;;;;;4.27;100.00;101954.16;5041524;28;20025;-65
2024/03/17 05:57:55;;;;;;;25.25;13.90;;;;;;;4.27;100.00;101959.41;5043965;28;20036;-68
2024/03/17 06:00:21;;;;;;;25.08;14.38;;;;;;;4.28;100.00;101955.94;5041448;28;20033;-69
2024/03/17 06:02:47;;;;;;;24.33;14.32;;;;;;;4.28;100.00;101962.09;5042664;28;20037;-69
2024/03/17 06:05:14;;;;;;;24.13;14.32;;;;;;;4.29;100.00;101965.59;5043578;28;20036;-67
2024/03/17 06:07:39;;;;;;;24.35;14.00;;;;;;;4.32;100.00;101960.50;5041829;28;20485;-76
2024/03/17 06:10:05;;;;;;;24.00;13.70;;;;;;;4.39;100.00;101965.19;5044548;28;20036;-70
2024/03/17 06:12:31;;;;;;;24.30;14.25;;;;;;;4.44;100.00;101968.03;5037041;28;20048;-66
2024/03/17 06:14:56;;;;;;;24.52;13.75;;;;;;;4.48;100.00;101970.84;5044015;28;20025;-69
2024/03/17 06:17:21;;;;;;;24.30;13.43;;;;;;;4.57;100.00;101974.75;5041057;28;20029;-66
2024/03/17 06:19:47;;;;;;;24.80;13.73;;;;;;;4.63;100.00;101977.66;5042336;28;20025;-68
2024/03/17 06:22:12;;;;;;;24.80;13.85;;;;;;;4.70;100.00;101969.25;5043471;28;20060;-66
2024/03/17 06:24:37;;;;;;;22.60;13.00;;;;;;;4.77;100.00;101981.81;5040882;28;20134;-70
2024/03/17 06:27:03;;;;;;;23.67;13.25;;;;;;;4.87;100.00;101970.91;5044113;28;20079;-66
2024/03/17 06:29:29;;;;;;;23.67;12.75;;;;;;;4.97;100.00;101971.34;5041214;28;20034;-68
2024/03/17 06:31:54;;;;;;;23.55;13.27;;;;;;;5.04;100.00;101979.56;5043178;28;20141;-66
2024/03/17 06:34:20;;;;;;;23.00;12.80;;;;;;;5.13;100.00;101978.19;5041942;28;20045;-69
2024/03/17 06:36:48;;;;;;;22.63;12.50;;;;;;;5.20;100.00;101983.75;5042458;28;20045;-66
2024/03/17 06:39:15;;;;;;;22.77;12.55;;;;;;;5.27;100.00;101984.03;5043127;28;20028;-66
2024/03/17 06:41:41;;;;;;;23.88;12.15;;;;;;;5.34;100.00;101986.97;5041414;28;20033;-66
2024/03/17 06:44:07;;;;;;;22.60;12.40;;;;;;;5.44;100.00;101988.28;5043187;28;20025;-67
2024/03/17 06:46:32;;;;;;;22.45;11.73;;;;;;;5.63;100.00;101975.97;5039373;28;20030;-69
2024/03/17 06:48:59;;;;;;;23.05;11.05;;;;;;;5.86;100.00;101969.06;5043674;28;20038;-66
2024/03/17 06:51:25;;;;;;;21.67;11.32;;;;;;;6.05;100.00;101965.50;5041553;28;20059;-66
2024/03/17 06:53:50;;;;;;;21.65;10.82;;;;;;;6.23;100.00;101954.84;5042524;28;20037;-66
2024/03/17 06:56:15;;;;;;;21.73;10.80;;;;;;;6.37;100.00;101958.03;5042952;28;20039;-66
2024/03/17 06:58:40;;;;;;;21.27;10.35;;;;;;;6.46;100.00;101966.25;5041028;28;20025;-66
2024/03/17 07:01:07;;;;;;;22.13;11.00;;;;;;;6.50;100.00;101970.78;5043937;28;20117;-68
2024/03/17 07:03:32;;;;;;;20.77;9.65;;;;;;;6.55;100.00;101969.25;5040708;28;20108;-66
2024/03/17 07:06:02;;;;;;;20.50;10.02;;;;;;;6.65;100.00;101961.72;5045343;28;20112;-70
2024/03/17 07:08:27;;;;;;;21.15;9.98;;;;;;;6.82;100.00;101955.34;5045018;28;20032;-70
2024/03/17 07:11:07;;;;;;;20.73;9.68;;;;;;;7.09;100.00;101962.47;5046651;28;20029;-66
2024/03/17 07:13:34;;;;;;;20.63;9.48;;;;;;;7.29;100.00;101953.56;5039310;28;20037;-65
2024/03/17 07:16:03;;;;;;;20.60;9.82;;;;;;;7.49;100.00;101959.50;5047394;28;20058;-68
2024/03/17 07:18:31;;;;;;;20.40;8.90;;;;;;;7.73;100.00;101941.88;5042644;28;20400;-64
2024/03/17 07:21:05;;;;;;;20.73;8.88;;;;;;;7.93;100.00;101946.06;5045548;28;20063;-64
2024/03/17 07:23:31;;;;;;;19.65;8.68;;;;;;;8.17;100.00;101937.19;5043988;28;20064;-65
2024/03/17 07:25:58;;;;;;;20.23;9.07;;;;;;;8.31;100.00;101941.13;5045100;28;20114;-67
2024/03/17 07:28:24;;;;;;;19.40;8.60;;;;;;;8.40;100.00;101934.34;5041574;28;20107;-65
2024/03/17 07:30:54;;;;;;;20.30;8.45;;;;;;;8.38;100.00;101950.13;5044880;28;20129;-65
2024/03/17 07:33:20;;;;;;;19.42;8.40;;;;;;;8.41;100.00;101941.44;5046153;28;20029;-69
2024/03/17 07:35:56;;;;;;;20.50;8.68;;;;;;;8.41;100.00;101949.34;5044190;28;20048;-69
2024/03/17 07:38:25;;;;;;;19.40;8.38;;;;;;;8.46;100.00;101937.22;5046037;28;20029;-64
2024/03/17 07:40:57;;;;;;;20.73;8.35;;;;;;;8.45;100.00;101948.63;5044814;28;20096;-64
2024/03/17 07:43:23;;;;;;;18.95;8.40;;;;;;;8.54;100.00;101941.88;5045665;28;20021;-66
2024/03/17 07:46:00;;;;;;;19.65;8.23;;;;;;;8.65;100.00;101943.91;5044550;28;20033;-70
2024/03/17 07:48:25;;;;;;;19.50;8.05;;;;;;;8.54;100.00;101935.72;5045440;28;20036;-65
2024/03/17 07:51:05;;;;;;;20.25;8.32;;;;;;;8.39;100.00;101946.66;5044587;28;20025;-65
2024/03/17 07:53:33;;;;;;;19.65;8.13;;;;;;;8.22;100.00;101943.47;5044196;28;20067;-65
2024/03/17 07:56:03;;;;;;;19.42;8.43;;;;;;;8.19;100.00;101940.75;5045692;28;20033;-65
2024/03/17 07:58:29;;;;;;;20.02;8.30;;;;;;;8.17;100.00;101929.28;5044677;28;20055;-65
2024/03/17 08:01:02;;;;;;;19.98;8.40;;;;;;;8.21;100.00;101925.88;5044993;28;20437;-66
2024/03/17 08:03:31;;;;;;;19.70;7.90;;;;;;;8.27;100.00;101927.81;5044918;28;20116;-65
2024/03/17 08:05:57;;;;;;;19.95;8.40;;;;;;;8.36;100.00;101917.56;5045216;28;20104;-72
2024/03/17 08:08:23;;;;;;;20.33;8.90;;;;;;;8.45;100.00;101919.63;5045246;28;20476;-75
2024/03/17 08:10:49;;;;;;;20.15;8.23;;;;;;;8.47;100.00;101923.19;5044064;28;20040;-73
2024/03/17 08:13:18;;;;;;;19.17;8.60;;;;;;;8.52;100.00;101927.75;5046440;28;20078;-70
2024/03/17 08:15:45;;;;;;;20.17;8.40;;;;;;;8.53;100.00;101929.56;5043414;28;20064;-76
2024/03/17 08:18:11;;;;;;;19.63;8.20;;;;;;;8.58;100.00;101928.78;5044109;28;20087;-73
2024/03/17 08:20:40;;;;;;;20.08;8.48;;;;;;;8.59;100.00;101928.84;5043419;28;20412;-66
2024/03/17 08:23:06;;;;;;;19.33;8.23;;;;;;;8.57;100.00;101929.66;5044877;28;20053;-66
2024/03/17 08:25:33;;;;;;;19.20;8.25;;;;;;;8.64;100.00;101934.25;5042387;28;20033;-66
2024/03/17 08:27:59;;;;;;;19.48;8.48;;;;;;;8.77;100.00;101932.88;5045123;28;20079;-66
2024/03/17 08:30:24;;;;;;;20.83;8.82;;;;;;;8.73;100.00;101937.16;5044910;28;20033;-66
2024/03/17 08:32:50;;;;;;;19.23;8.30;;;;;;;8.82;100.00;101945.31;5043639;28;20049;-65
2024/03/17 08:35:15;;;;;;;20.42;8.10;;;;;;;8.88;100.00;101945.50;5046065;28;20037;-68
2024/03/17 08:37:40;;;;;;;19.60;8.45;;;;;;;8.94;100.00;101947.44;5042822;28;20038;-65
2024/03/17 08:40:07;;;;;;;19.70;8.07;;;;;;;8.99;100.00;101929.09;5045781;28;20032;-66
2024/03/17 08:42:32;;;;;;;19.60;8.00;;;;;;;9.05;100.00;101932.78;5043461;28;20049;-65
2024/03/17 08:44:58;;;;;;;18.85;7.97;;;;;;;9.15;100.00;101930.41;5042880;28;20521;-65
2024/03/17 08:47:23;;;;;;;19.98;8.25;;;;;;;9.25;100.00;101935.97;5043922;28;20029;-66
2024/03/17 08:49:51;;;;;;;19.58;8.40;;;;;;;9.38;100.00;101929.28;5045488;28;20025;-69
2024/03/17 08:52:17;;;;;;;19.90;8.10;;;;;;;9.60;100.00;101943.94;5041705;28;20076;-69
2024/03/17 08:54:51;;;;;;;19.25;7.93;;;;;;;9.87;100.00;101934.94;5046215;28;20033;-68
2024/03/17 08:57:16;;;;;;;19.33;7.70;;;;;;;10.18;100.00;101940.03;5038702;28;20492;-67
2024/03/17 08:59:42;;;;;;;19.80;7.93;;;;;;;10.47;100.00;101927.53;5045775;28;20040;-66
2024/03/17 09:02:14;;;;;;;18.90;7.57;;;;;;;10.88;100.00;101930.16;5042419;28;20025;-66
2024/03/17 09:04:39;;;;;;;;;;;;;;;11.48;100.00;101931.28;5038773;28;20067;-67
2024/03/17 09:07:05;;;;;;;18.73;7.10;;;;;;;11.90;100.00;101926.72;5045325;28;19959;-66
2024/03/17 09:09:30;;;;;;;19.20;6.60;;;;;;;12.18;100.00;101916.56;5041487;28;20029;-66
2024/03/17 09:11:56;;;;;;;19.65;7.20;;;;;;;12.59;100.00;101918.00;5043959;28;20035;-66
2024/03/17 09:14:21;;;;;;;18.85;6.50;;;;;;;12.51;100.00;101918.81;5043202;28;20048;-66
2024/03/17 09:16:47;;;;;;;17.88;6.65;;;;;;;12.41;100.00;101919.56;5045165;28;20025;-70
2024/03/17 09:19:13;;;;;;;17.77;6.75;;;;;;;12.44;100.00;101922.25;5042436;28;20117;-65
2024/03/17 09:21:39;;;;;;;17.50;6.60;;;;;;;12.61;100.00;101918.91;5045242;28;20482;-65
2024/03/17 09:24:08;;;;;;;19.00;6.40;;;;;;;12.61;100.00;101919.81;5042336;28;20115;-66
2024/03/17 09:26:34;;;;;;;18.20;6.30;;;;;;;12.75;100.00;101919.97;5027233;28;20426;-76
2024/03/17 09:29:00;;;;;;;16.92;6.10;;;;;;;13.02;100.00;101914.13;5042657;28;20020;-67
2024/03/17 09:31:26;;;;;;;18.58;6.15;;;;;;;13.87;100.00;101911.41;5043295;28;20503;-66
2024/03/17 09:33:51;;;;;;;16.73;6.00;;;;;;;14.07;100.00;101909.78;5043074;28;20028;-67
2024/03/17 09:36:18;;;;;;;18.23;6.07;;;;;;;14.42;100.00;101902.91;5042124;28;20087;-67
2024/03/17 09:38:45;;;;;;;17.52;6.10;;;;;;;14.95;100.00;101909.34;5045370;28;20029;-67
2024/03/17 09:41:21;;;;;;;15.60;5.78;;;;;;;14.66;100.00;101907.47;5037965;28;20037;-72
2024/03/17 09:43:47;;;;;;;16.98;6.03;;;;;;;14.20;100.00;101902.78;5044765;28;20028;-70
2024/03/17 09:46:13;;;;;;;18.38;6.13;;;;;;;13.86;100.00;101898.97;5041446;28;20143;-72
2024/03/17 09:48:38;;;;;;;17.63;5.88;;;;;;;13.41;100.00;101901.25;5045057;28;20021;-71
2024/03/17 09:51:04;;;;;;;16.90;6.05;;;;;;;13.23;100.00;101899.28;5040864;28;20040;-68
2024/03/17 09:53:34;;;;;;;17.33;5.97;;;;;;;13.29;100.00;101895.81;5043534;28;20384;-73
2024/03/17 09:56:15;;;;;;;17.17;6.10;;;;;;;13.51;100.00;101911.09;5042865;28;20029;-72
2024/03/17 09:58:52;;;;;;;17.38;6.25;;;;;;;13.60;100.00;101915.59;5044900;28;20029;-67
2024/03/17 10:01:18;;;;;;;19.20;6.50;;;;;;;13.68;100.00;101905.06;5039019;28;20033;-72
2024/03/17 10:03:58;;;;;;;17.48;6.03;;;;;;;14.11;100.00;101902.69;5043322;28;20105;-76
2024/03/17 10:06:27;;;;;;;18.98;6.22;;;;;;;14.27;100.00;101903.69;5040231;28;20029;-74
2024/03/17 10:09:15;;;;;;;17.88;6.43;;;;;;;14.03;100.00;101904.44;5043566;28;20029;-74
2024/03/17 10:11:41;;;;;;;18.13;6.03;;;;;;;13.65;100.00;101905.03;5044491;28;20035;-73
2024/03/17 10:14:08;;;;;;;17.38;6.13;;;;;;;13.59;100.00;101906.75;5041862;28;20122;-74
2024/03/17 10:16:35;;;;;;;18.25;6.40;;;;;;;13.46;100.00;101902.19;5042414;28;20029;-76
2024/03/17 10:19:10;;;;;;;17.25;6.00;;;;;;;13.46;100.00;101906.63;5042111;28;20033;-73
2024/03/17 10:21:36;;;;;;;17.45;6.20;;;;;;;13.46;100.00;101904.88;5044114;28;20029;-66
2024/03/17 10:24:05;;;;;;;18.65;6.15;;;;;;;13.39;100.00;101908.34;5041848;28;20400;-68
2024/03/17 10:26:30;;;;;;;17.50;5.97;;;;;;;13.19;100.00;101894.81;5042972;28;20506;-65
2024/03/17 10:28:55;;;;;;;19.80;6.40;;;;;;;13.13;100.00;101889.44;5042988;28;20056;-66
2024/03/17 10:31:21;;;;;;;18.52;6.57;;;;;;;13.12;100.00;101883.25;5040338;28;20017;-66
2024/03/17 10:34:01;;;;;;;17.55;6.18;;;;;;;13.20;100.00;101886.00;5043628;28;20356;-65
2024/03/17 10:36:26;;;;;;;19.02;6.45;;;;;;;13.02;100.00;101890.22;5042319;28;20025;-67
2024/03/17 10:38:53;;;;;;;18.95;6.10;;;;;;;12.96;100.00;101881.28;5043223;28;20036;-66
2024/03/17 10:41:20;;;;;;;17.15;5.93;;;;;;;13.03;100.00;101883.16;5040421;28;20030;-67
2024/03/17 10:43:45;;;;;;;17.13;5.88;;;;;;;13.12;100.00;101883.25;5044013;28;20033;-67
2024/03/17 10:46:14;;;;;;;18.02;6.30;;;;;;;13.23;100.00;101878.94;5040803;28;20036;-70
2024/03/17 10:48:42;;;;;;;17.77;6.32;;;;;;;13.47;100.00;101876.53;5044117;28;20029;-70
2024/03/17 10:51:17;;;;;;;17.60;6.20;;;;;;;13.78;100.00;101881.22;5041109;28;20053;-70
2024/03/17 10:53:46;;;;;;;17.67;6.18;;;;;;;13.88;100.00;101871.53;5044189;28;20066;-70
2024/03/17 10:56:15;;;;;;;17.10;6.20;;;;;;;13.92;100.00;101873.34;5036916;28;20026;-67
2024/03/17 10:58:50;;;;;;;17.75;6.30;;;;;;;14.14;100.00;101873.50;5043931;28;20072;-69
2024/03/17 11:01:18;;;;;;;18.33;6.40;;;;;;;14.10;100.00;101866.38;5037576;28;20056;-67
2024/03/17 11:03:46;;;;;;;17.60;5.78;;;;;;;14.02;100.00;101868.09;5044263;28;20025;-66
2024/03/17 11:06:12;;;;;;;16.92;5.95;;;;;;;14.04;100.00;101874.31;5035291;28;20551;-67
2024/03/17 11:08:40;;;;;;;17.08;5.90;;;;;;;13.94;100.00;101868.91;5043545;28;20155;-68
2024/03/17 11:11:08;;;;;;;17.40;6.35;;;;;;;13.88;100.00;101882.19;5040910;28;20033;-66
2024/03/17 11:13:35;;;;;;;17.65;6.30;;;;;;;13.72;100.00;101872.31;5043156;28;20056;-66